Lincoln Airport


Codes: KLNK/LNK
Name: Lincoln Airport
City: Lincoln
Country: United States
Elevation: 1219 ft.
Website:
Wikipedia:

Photos at Lincoln Airport


   Photos courtesy of SpottingLog. You can add your own sightings and photos by signing up for a free trial today.



No photos found.

Weather at Lincoln Airport


Time (UTC)DescriptionTempratureWindCloud coverageVisibilityPressureHumidity
21-Feb-2024 03:00Broken Clouds14°C11 mph, SW64%10000m1014hPa41%
21-Feb-2024 06:00Broken Clouds12°C9 mph, W54%10000m1014hPa51%
21-Feb-2024 09:00Scattered Clouds9°C7 mph, NW35%10000m1014hPa59%
21-Feb-2024 12:00Scattered Clouds6°C7 mph, N50%10000m1014hPa73%
21-Feb-2024 15:00Overcast Clouds8°C4 mph, NE98%10000m1013hPa64%
21-Feb-2024 18:00Broken Clouds14°C7 mph, E83%10000m1010hPa42%
21-Feb-2024 21:00Broken Clouds17°C4 mph, E57%10000m1007hPa36%
22-Feb-2024 00:00Broken Clouds13°C7 mph, NE78%10000m1006hPa50%
22-Feb-2024 03:00Overcast Clouds11°C7 mph, NE100%10000m1007hPa55%
22-Feb-2024 06:00Overcast Clouds9°C7 mph, N100%10000m1007hPa66%
22-Feb-2024 09:00Overcast Clouds9°C7 mph, N100%10000m1008hPa66%
22-Feb-2024 12:00Overcast Clouds7°C7 mph, NW98%10000m1010hPa71%
22-Feb-2024 15:00Overcast Clouds8°C11 mph, NW98%10000m1012hPa63%
22-Feb-2024 18:00Overcast Clouds13°C16 mph, NW96%10000m1013hPa45%
22-Feb-2024 21:00Scattered Clouds14°C18 mph, NW34%10000m1012hPa37%
23-Feb-2024 00:00Few Clouds11°C11 mph, NW18%10000m1013hPa47%
23-Feb-2024 03:00Clear Sky7°C7 mph, NW0%10000m1015hPa61%
23-Feb-2024 06:00Clear Sky6°C7 mph, NW0%10000m1015hPa69%
23-Feb-2024 09:00Clear Sky5°C7 mph, NW0%10000m1014hPa74%
23-Feb-2024 12:00Clear Sky5°C9 mph, W0%10000m1014hPa71%
23-Feb-2024 15:00Clear Sky8°C11 mph, NW0%10000m1014hPa58%
23-Feb-2024 18:00Clear Sky13°C18 mph, NW0%10000m1013hPa38%
23-Feb-2024 21:00Scattered Clouds15°C18 mph, NW43%10000m1011hPa33%
24-Feb-2024 00:00Scattered Clouds11°C11 mph, NW49%10000m1012hPa44%
24-Feb-2024 03:00Clear Sky7°C7 mph, N2%10000m1015hPa59%
24-Feb-2024 06:00Clear Sky5°C4 mph, N1%10000m1016hPa73%
24-Feb-2024 09:00Clear Sky3°C4 mph, NE0%10000m1018hPa80%
24-Feb-2024 12:00Clear Sky2°C4 mph, SE0%10000m1018hPa84%
24-Feb-2024 15:00Clear Sky5°C9 mph, S0%10000m1018hPa71%
24-Feb-2024 18:00Clear Sky13°C13 mph, SW2%10000m1014hPa39%
24-Feb-2024 21:00Few Clouds17°C16 mph, SW14%10000m1009hPa25%
25-Feb-2024 00:00Clear Sky14°C11 mph, SW7%10000m1007hPa33%
25-Feb-2024 03:00Clear Sky10°C7 mph, W0%10000m1008hPa41%
25-Feb-2024 06:00Clear Sky9°C7 mph, SW0%10000m1008hPa42%
25-Feb-2024 09:00Clear Sky8°C4 mph, W0%10000m1007hPa41%
25-Feb-2024 12:00Clear Sky6°C4 mph, W0%10000m1007hPa44%
25-Feb-2024 15:00Clear Sky9°C4 mph, N0%10000m1008hPa39%
25-Feb-2024 18:00Clear Sky14°C4 mph, NE0%10000m1007hPa30%
25-Feb-2024 21:00Clear Sky17°C2 mph, NE0%10000m1006hPa27%
26-Feb-2024 00:00Clear Sky14°C2 mph, E0%10000m1007hPa35%